sensor_id;sensor_type;location;lat;lon;timestamp;temperature;humidity
52297;DHT22;38244;51.046;17.038;2022-11-15T00:01:42;8.78;67.55
52297;DHT22;38244;51.046;17.038;2022-11-15T00:04:09;8.75;67.40
52297;DHT22;38244;51.046;17.038;2022-11-15T00:06:35;8.61;67.62
52297;DHT22;38244;51.046;17.038;2022-11-15T00:09:02;8.56;67.82
52297;DHT22;38244;51.046;17.038;2022-11-15T00:11:28;8.45;68.12
52297;DHT22;38244;51.046;17.038;2022-11-15T00:13:58;8.35;68.38
52297;DHT22;38244;51.046;17.038;2022-11-15T00:16:24;8.17;68.97
52297;DHT22;38244;51.046;17.038;2022-11-15T00:18:51;8.07;69.32
52297;DHT22;38244;51.046;17.038;2022-11-15T00:21:17;8.07;69.36
52297;DHT22;38244;51.046;17.038;2022-11-15T00:24:04;8.01;69.74
52297;DHT22;38244;51.046;17.038;2022-11-15T00:26:30;8.08;69.35
52297;DHT22;38244;51.046;17.038;2022-11-15T00:28:56;8.10;69.29
52297;DHT22;38244;51.046;17.038;2022-11-15T00:31:22;8.18;68.98
52297;DHT22;38244;51.046;17.038;2022-11-15T00:36:52;8.14;68.85
52297;DHT22;38244;51.046;17.038;2022-11-15T00:39:18;8.13;68.77
52297;DHT22;38244;51.046;17.038;2022-11-15T00:41:44;8.14;68.77
52297;DHT22;38244;51.046;17.038;2022-11-15T00:44:10;8.05;69.02
52297;DHT22;38244;51.046;17.038;2022-11-15T00:46:36;7.98;69.25
52297;DHT22;38244;51.046;17.038;2022-11-15T00:49:02;8.05;68.97
52297;DHT22;38244;51.046;17.038;2022-11-15T00:51:28;8.04;68.85
52297;DHT22;38244;51.046;17.038;2022-11-15T00:57:16;8.08;68.53
52297;DHT22;38244;51.046;17.038;2022-11-15T00:59:42;8.18;68.32
52297;DHT22;38244;51.046;17.038;2022-11-15T01:02:08;8.10;68.27
52297;DHT22;38244;51.046;17.038;2022-11-15T01:04:34;8.15;68.21
52297;DHT22;38244;51.046;17.038;2022-11-15T01:07:00;8.25;67.96
52297;DHT22;38244;51.046;17.038;2022-11-15T01:09:27;8.31;67.69
52297;DHT22;38244;51.046;17.038;2022-11-15T01:11:53;8.32;67.57
52297;DHT22;38244;51.046;17.038;2022-11-15T01:14:19;8.38;67.40
52297;DHT22;38244;51.046;17.038;2022-11-15T01:16:45;8.43;67.15
52297;DHT22;38244;51.046;17.038;2022-11-15T01:19:11;8.48;66.97
52297;DHT22;38244;51.046;17.038;2022-11-15T01:21:37;8.52;66.73
52297;DHT22;38244;51.046;17.038;2022-11-15T01:24:03;8.46;66.78
52297;DHT22;38244;51.046;17.038;2022-11-15T01:26:29;8.48;66.74
52297;DHT22;38244;51.046;17.038;2022-11-15T01:28:55;8.55;66.54
52297;DHT22;38244;51.046;17.038;2022-11-15T01:31:21;8.60;66.31
52297;DHT22;38244;51.046;17.038;2022-11-15T01:33:48;8.60;66.10
52297;DHT22;38244;51.046;17.038;2022-11-15T01:36:17;8.63;65.80
52297;DHT22;38244;51.046;17.038;2022-11-15T01:38:43;8.66;65.57
52297;DHT22;38244;51.046;17.038;2022-11-15T01:41:15;8.68;65.32
52297;DHT22;38244;51.046;17.038;2022-11-15T01:43:41;8.66;65.23
52297;DHT22;38244;51.046;17.038;2022-11-15T01:48:36;8.59;65.19
52297;DHT22;38244;51.046;17.038;2022-11-15T01:51:08;8.53;65.24
52297;DHT22;38244;51.046;17.038;2022-11-15T01:53:37;8.42;65.35
52297;DHT22;38244;51.046;17.038;2022-11-15T01:56:07;8.42;65.36
52297;DHT22;38244;51.046;17.038;2022-11-15T01:58:34;8.36;65.46
52297;DHT22;38244;51.046;17.038;2022-11-15T02:01:01;8.35;65.37
52297;DHT22;38244;51.046;17.038;2022-11-15T02:03:41;8.32;65.23
52297;DHT22;38244;51.046;17.038;2022-11-15T02:06:06;8.29;65.31
52297;DHT22;38244;51.046;17.038;2022-11-15T02:08:32;8.27;65.33
52297;DHT22;38244;51.046;17.038;2022-11-15T02:10:58;8.22;65.49
52297;DHT22;38244;51.046;17.038;2022-11-15T02:13:27;8.22;65.56
52297;DHT22;38244;51.046;17.038;2022-11-15T02:15:58;8.21;65.56
52297;DHT22;38244;51.046;17.038;2022-11-15T02:18:32;8.22;65.45
52297;DHT22;38244;51.046;17.038;2022-11-15T02:21:11;8.24;65.44
52297;DHT22;38244;51.046;17.038;2022-11-15T02:23:56;8.24;65.30
52297;DHT22;38244;51.046;17.038;2022-11-15T02:26:31;8.25;65.14
52297;DHT22;38244;51.046;17.038;2022-11-15T02:32:03;8.13;65.51
52297;DHT22;38244;51.046;17.038;2022-11-15T02:37:38;8.07;65.56
52297;DHT22;38244;51.046;17.038;2022-11-15T02:42:45;8.04;65.59
52297;DHT22;38244;51.046;17.038;2022-11-15T02:45:37;8.07;65.42
52297;DHT22;38244;51.046;17.038;2022-11-15T02:48:04;8.04;65.36
52297;DHT22;38244;51.046;17.038;2022-11-15T02:50:32;7.97;65.57
52297;DHT22;38244;51.046;17.038;2022-11-15T02:52:59;8.00;65.54
52297;DHT22;38244;51.046;17.038;2022-11-15T02:55:34;8.01;65.41
52297;DHT22;38244;51.046;17.038;2022-11-15T03:03:52;7.96;65.32
52297;DHT22;38244;51.046;17.038;2022-11-15T03:09:22;8.14;64.93
52297;DHT22;38244;51.046;17.038;2022-11-15T03:11:50;8.20;64.79
52297;DHT22;38244;51.046;17.038;2022-11-15T03:14:24;8.24;64.61
52297;DHT22;38244;51.046;17.038;2022-11-15T03:17:01;8.28;64.40
52297;DHT22;38244;51.046;17.038;2022-11-15T03:22:06;8.27;64.23
52297;DHT22;38244;51.046;17.038;2022-11-15T03:24:36;8.31;64.01
52297;DHT22;38244;51.046;17.038;2022-11-15T03:27:07;8.32;64.05
52297;DHT22;38244;51.046;17.038;2022-11-15T03:29:41;8.29;64.00
52297;DHT22;38244;51.046;17.038;2022-11-15T03:32:11;8.25;64.10
52297;DHT22;38244;51.046;17.038;2022-11-15T03:34:52;8.20;64.16
52297;DHT22;38244;51.046;17.038;2022-11-15T03:37:21;8.21;64.19
52297;DHT22;38244;51.046;17.038;2022-11-15T03:39:47;8.25;64.24
52297;DHT22;38244;51.046;17.038;2022-11-15T03:42:21;8.29;64.09
52297;DHT22;38244;51.046;17.038;2022-11-15T03:44:58;8.24;64.04
52297;DHT22;38244;51.046;17.038;2022-11-15T03:47:34;8.25;63.99
52297;DHT22;38244;51.046;17.038;2022-11-15T03:50:10;8.28;63.92
52297;DHT22;38244;51.046;17.038;2022-11-15T03:52:34;8.31;63.75
52297;DHT22;38244;51.046;17.038;2022-11-15T03:55:03;8.28;63.72
52297;DHT22;38244;51.046;17.038;2022-11-15T03:57:29;8.29;63.71
52297;DHT22;38244;51.046;17.038;2022-11-15T03:59:56;8.33;63.72
52297;DHT22;38244;51.046;17.038;2022-11-15T04:02:22;8.21;63.85
52297;DHT22;38244;51.046;17.038;2022-11-15T04:04:48;8.18;63.86
52297;DHT22;38244;51.046;17.038;2022-11-15T04:07:14;8.22;63.78
52297;DHT22;38244;51.046;17.038;2022-11-15T04:09:40;8.25;63.71
52297;DHT22;38244;51.046;17.038;2022-11-15T04:12:26;8.24;63.59
52297;DHT22;38244;51.046;17.038;2022-11-15T04:15:02;8.15;63.76
52297;DHT22;38244;51.046;17.038;2022-11-15T04:18:03;8.17;63.78
52297;DHT22;38244;51.046;17.038;2022-11-15T04:20:36;8.14;63.85
52297;DHT22;38244;51.046;17.038;2022-11-15T04:26:42;8.04;63.86
52297;DHT22;38244;51.046;17.038;2022-11-15T04:29:08;8.07;63.81
52297;DHT22;38244;51.046;17.038;2022-11-15T04:31:53;8.08;63.73
52297;DHT22;38244;51.046;17.038;2022-11-15T04:34:19;8.00;63.80
52297;DHT22;38244;51.046;17.038;2022-11-15T04:36:45;8.01;63.93
52297;DHT22;38244;51.046;17.038;2022-11-15T04:39:30;7.97;64.09
52297;DHT22;38244;51.046;17.038;2022-11-15T04:41:56;8.05;63.94
52297;DHT22;38244;51.046;17.038;2022-11-15T04:44:22;8.03;63.72
52297;DHT22;38244;51.046;17.038;2022-11-15T04:46:48;8.01;63.84
52297;DHT22;38244;51.046;17.038;2022-11-15T04:49:14;8.01;63.86
52297;DHT22;38244;51.046;17.038;2022-11-15T04:51:40;7.97;63.80
52297;DHT22;38244;51.046;17.038;2022-11-15T04:54:06;7.92;63.90
52297;DHT22;38244;51.046;17.038;2022-11-15T04:56:32;7.89;64.08
52297;DHT22;38244;51.046;17.038;2022-11-15T04:58:58;7.86;64.06
52297;DHT22;38244;51.046;17.038;2022-11-15T05:01:24;7.87;63.94
52297;DHT22;38244;51.046;17.038;2022-11-15T05:03:50;7.85;64.00
52297;DHT22;38244;51.046;17.038;2022-11-15T05:06:34;7.69;64.27
52297;DHT22;38244;51.046;17.038;2022-11-15T05:09:00;7.66;64.35
52297;DHT22;38244;51.046;17.038;2022-11-15T05:11:26;7.70;64.31
52297;DHT22;38244;51.046;17.038;2022-11-15T05:16:55;7.73;64.10
52297;DHT22;38244;51.046;17.038;2022-11-15T05:19:22;7.78;63.98
52297;DHT22;38244;51.046;17.038;2022-11-15T05:22:10;7.80;63.92
52297;DHT22;38244;51.046;17.038;2022-11-15T05:24:36;7.79;63.92
52297;DHT22;38244;51.046;17.038;2022-11-15T05:27:02;7.83;63.80
52297;DHT22;38244;51.046;17.038;2022-11-15T05:29:28;7.82;63.75
52297;DHT22;38244;51.046;17.038;2022-11-15T05:31:54;7.86;63.74
52297;DHT22;38244;51.046;17.038;2022-11-15T05:34:20;7.87;63.78
52297;DHT22;38244;51.046;17.038;2022-11-15T05:36:48;7.92;63.72
52297;DHT22;38244;51.046;17.038;2022-11-15T05:39:20;7.94;63.48
52297;DHT22;38244;51.046;17.038;2022-11-15T05:45:12;8.00;63.19
52297;DHT22;38244;51.046;17.038;2022-11-15T05:47:50;8.01;62.94
52297;DHT22;38244;51.046;17.038;2022-11-15T05:50:20;8.05;62.82
52297;DHT22;38244;51.046;17.038;2022-11-15T05:52:49;8.11;62.81
52297;DHT22;38244;51.046;17.038;2022-11-15T05:55:23;8.08;62.82
52297;DHT22;38244;51.046;17.038;2022-11-15T05:57:46;8.14;62.79
52297;DHT22;38244;51.046;17.038;2022-11-15T06:00:12;8.17;62.82
52297;DHT22;38244;51.046;17.038;2022-11-15T06:02:58;8.18;62.77
52297;DHT22;38244;51.046;17.038;2022-11-15T06:05:36;8.22;62.70
52297;DHT22;38244;51.046;17.038;2022-11-15T06:11:34;8.27;62.53
52297;DHT22;38244;51.046;17.038;2022-11-15T06:14:02;8.29;62.58
52297;DHT22;38244;51.046;17.038;2022-11-15T06:19:37;8.28;62.40
52297;DHT22;38244;51.046;17.038;2022-11-15T06:22:07;8.21;62.53
52297;DHT22;38244;51.046;17.038;2022-11-15T06:24:35;8.17;62.73
52297;DHT22;38244;51.046;17.038;2022-11-15T06:27:05;8.14;62.93
52297;DHT22;38244;51.046;17.038;2022-11-15T06:29:33;8.14;63.00
52297;DHT22;38244;51.046;17.038;2022-11-15T06:32:25;8.07;63.14
52297;DHT22;38244;51.046;17.038;2022-11-15T06:34:53;8.08;63.24
52297;DHT22;38244;51.046;17.038;2022-11-15T06:37:20;8.11;63.29
52297;DHT22;38244;51.046;17.038;2022-11-15T06:39:47;8.15;63.24
52297;DHT22;38244;51.046;17.038;2022-11-15T06:42:13;8.13;63.52
52297;DHT22;38244;51.046;17.038;2022-11-15T06:44:41;8.14;63.65
52297;DHT22;38244;51.046;17.038;2022-11-15T06:47:10;8.20;63.70
52297;DHT22;38244;51.046;17.038;2022-11-15T06:49:36;8.28;63.70
52297;DHT22;38244;51.046;17.038;2022-11-15T06:52:05;8.39;63.43
52297;DHT22;38244;51.046;17.038;2022-11-15T06:54:34;8.53;63.23
52297;DHT22;38244;51.046;17.038;2022-11-15T06:57:01;8.64;63.05
52297;DHT22;38244;51.046;17.038;2022-11-15T06:59:31;8.78;62.98
52297;DHT22;38244;51.046;17.038;2022-11-15T07:01:59;8.94;62.83
52297;DHT22;38244;51.046;17.038;2022-11-15T07:04:26;9.11;62.13
52297;DHT22;38244;51.046;17.038;2022-11-15T07:06:53;9.27;61.75
52297;DHT22;38244;51.046;17.038;2022-11-15T07:09:19;9.44;61.26
52297;DHT22;38244;51.046;17.038;2022-11-15T07:15:09;9.77;61.11
52297;DHT22;38244;51.046;17.038;2022-11-15T07:21:00;10.20;60.13
52297;DHT22;38244;51.046;17.038;2022-11-15T07:23:28;10.43;59.71
52297;DHT22;38244;51.046;17.038;2022-11-15T07:25:56;10.58;59.52
52297;DHT22;38244;51.046;17.038;2022-11-15T07:28:25;10.41;59.39
52297;DHT22;38244;51.046;17.038;2022-11-15T07:30:54;9.74;61.61
52297;DHT22;38244;51.046;17.038;2022-11-15T07:33:24;9.39;63.58
52297;DHT22;38244;51.046;17.038;2022-11-15T07:35:50;10.52;62.47
52297;DHT22;38244;51.046;17.038;2022-11-15T07:38:17;12.32;58.78
52297;DHT22;38244;51.046;17.038;2022-11-15T07:40:45;13.76;54.65
52297;DHT22;38244;51.046;17.038;2022-11-15T07:46:55;15.76;49.92
52297;DHT22;38244;51.046;17.038;2022-11-15T07:49:21;16.66;46.89
52297;DHT22;38244;51.046;17.038;2022-11-15T07:51:48;17.39;45.88
52297;DHT22;38244;51.046;17.038;2022-11-15T07:54:14;18.05;45.18
52297;DHT22;38244;51.046;17.038;2022-11-15T07:56:40;18.56;43.65
52297;DHT22;38244;51.046;17.038;2022-11-15T07:59:06;18.87;43.00
52297;DHT22;38244;51.046;17.038;2022-11-15T08:01:33;19.26;41.50
52297;DHT22;38244;51.046;17.038;2022-11-15T08:03:59;19.58;40.73
52297;DHT22;38244;51.046;17.038;2022-11-15T08:06:25;20.01;40.73
52297;DHT22;38244;51.046;17.038;2022-11-15T08:08:59;20.47;39.84
52297;DHT22;38244;51.046;17.038;2022-11-15T08:11:31;20.96;39.21
52297;DHT22;38244;51.046;17.038;2022-11-15T08:14:00;21.36;38.49
52297;DHT22;38244;51.046;17.038;2022-11-15T08:16:30;21.66;37.42
52297;DHT22;38244;51.046;17.038;2022-11-15T08:18:56;21.95;37.49
52297;DHT22;38244;51.046;17.038;2022-11-15T08:21:25;22.17;36.37
52297;DHT22;38244;51.046;17.038;2022-11-15T08:23:58;22.32;35.99
52297;DHT22;38244;51.046;17.038;2022-11-15T08:26:25;22.44;35.49
52297;DHT22;38244;51.046;17.038;2022-11-15T08:28:53;22.64;35.70
52297;DHT22;38244;51.046;17.038;2022-11-15T08:31:21;22.89;35.40
52297;DHT22;38244;51.046;17.038;2022-11-15T08:33:55;23.13;35.16
52297;DHT22;38244;51.046;17.038;2022-11-15T08:36:21;23.35;34.43
52297;DHT22;38244;51.046;17.038;2022-11-15T08:38:47;23.46;34.58
52297;DHT22;38244;51.046;17.038;2022-11-15T08:41:22;23.50;33.40
52297;DHT22;38244;51.046;17.038;2022-11-15T08:44:05;23.44;33.96
52297;DHT22;38244;51.046;17.038;2022-11-15T08:46:31;23.53;35.08
52297;DHT22;38244;51.046;17.038;2022-11-15T08:48:57;23.63;33.95
52297;DHT22;38244;51.046;17.038;2022-11-15T08:51:24;23.69;33.60
52297;DHT22;38244;51.046;17.038;2022-11-15T08:53:56;23.79;33.01
52297;DHT22;38244;51.046;17.038;2022-11-15T08:56:26;23.89;33.58
52297;DHT22;38244;51.046;17.038;2022-11-15T08:58:56;23.92;32.81
52297;DHT22;38244;51.046;17.038;2022-11-15T09:01:23;24.00;33.51
52297;DHT22;38244;51.046;17.038;2022-11-15T09:04:08;24.10;33.46
52297;DHT22;38244;51.046;17.038;2022-11-15T09:06:38;24.17;33.13
52297;DHT22;38244;51.046;17.038;2022-11-15T09:09:09;24.15;33.30
52297;DHT22;38244;51.046;17.038;2022-11-15T09:11:38;24.17;33.38
52297;DHT22;38244;51.046;17.038;2022-11-15T09:14:05;24.17;33.61
52297;DHT22;38244;51.046;17.038;2022-11-15T09:16:31;24.12;33.84
52297;DHT22;38244;51.046;17.038;2022-11-15T09:18:59;23.93;34.37
52297;DHT22;38244;51.046;17.038;2022-11-15T09:21:25;23.58;34.72
52297;DHT22;38244;51.046;17.038;2022-11-15T09:23:51;23.18;35.49
52297;DHT22;38244;51.046;17.038;2022-11-15T09:26:18;22.78;36.29
52297;DHT22;38244;51.046;17.038;2022-11-15T09:28:44;22.37;37.24
52297;DHT22;38244;51.046;17.038;2022-11-15T09:31:10;21.93;38.17
52297;DHT22;38244;51.046;17.038;2022-11-15T09:33:36;21.50;39.10
52297;DHT22;38244;51.046;17.038;2022-11-15T09:36:07;21.07;40.08
52297;DHT22;38244;51.046;17.038;2022-11-15T09:38:36;20.58;41.45
52297;DHT22;38244;51.046;17.038;2022-11-15T09:41:25;20.15;42.67
52297;DHT22;38244;51.046;17.038;2022-11-15T09:44:06;19.78;43.70
52297;DHT22;38244;51.046;17.038;2022-11-15T09:49:17;19.16;45.18
52297;DHT22;38244;51.046;17.038;2022-11-15T09:51:48;18.87;45.67
52297;DHT22;38244;51.046;17.038;2022-11-15T09:54:35;18.73;46.53
52297;DHT22;38244;51.046;17.038;2022-11-15T09:57:14;18.53;47.15
52297;DHT22;38244;51.046;17.038;2022-11-15T10:05:18;18.00;49.04
52297;DHT22;38244;51.046;17.038;2022-11-15T10:10:46;17.79;49.40
52297;DHT22;38244;51.046;17.038;2022-11-15T10:13:35;17.70;50.13
52297;DHT22;38244;51.046;17.038;2022-11-15T10:21:23;17.57;50.62
52297;DHT22;38244;51.046;17.038;2022-11-15T10:23:50;17.52;51.15
52297;DHT22;38244;51.046;17.038;2022-11-15T10:26:18;17.41;51.22
52297;DHT22;38244;51.046;17.038;2022-11-15T10:28:44;17.24;51.08
52297;DHT22;38244;51.046;17.038;2022-11-15T10:31:25;17.10;52.07
52297;DHT22;38244;51.046;17.038;2022-11-15T10:34:08;16.92;52.78
52297;DHT22;38244;51.046;17.038;2022-11-15T10:36:27;16.79;52.95
52297;DHT22;38244;51.046;17.038;2022-11-15T10:38:56;16.66;52.72
52297;DHT22;38244;51.046;17.038;2022-11-15T10:41:31;16.50;52.67
52297;DHT22;38244;51.046;17.038;2022-11-15T10:46:37;16.26;53.67
52297;DHT22;38244;51.046;17.038;2022-11-15T10:49:15;16.10;54.27
52297;DHT22;38244;51.046;17.038;2022-11-15T10:51:47;16.00;54.39
52297;DHT22;38244;51.046;17.038;2022-11-15T10:57:22;15.67;55.47
52297;DHT22;38244;51.046;17.038;2022-11-15T10:59:36;15.56;55.73
52297;DHT22;38244;51.046;17.038;2022-11-15T11:02:28;15.41;55.83
52297;DHT22;38244;51.046;17.038;2022-11-15T11:04:57;15.26;55.67
52297;DHT22;38244;51.046;17.038;2022-11-15T11:07:27;15.12;56.51
52297;DHT22;38244;51.046;17.038;2022-11-15T11:10:20;15.09;56.66
52297;DHT22;38244;51.046;17.038;2022-11-15T11:12:47;15.02;57.51
52297;DHT22;38244;51.046;17.038;2022-11-15T11:15:14;15.02;57.31
52297;DHT22;38244;51.046;17.038;2022-11-15T11:20:38;14.99;58.28
52297;DHT22;38244;51.046;17.038;2022-11-15T11:26:25;14.92;57.56
52297;DHT22;38244;51.046;17.038;2022-11-15T11:31:37;14.82;57.24
52297;DHT22;38244;51.046;17.038;2022-11-15T11:34:19;14.72;57.23
52297;DHT22;38244;51.046;17.038;2022-11-15T11:48:08;14.26;59.39
52297;DHT22;38244;51.046;17.038;2022-11-15T11:50:32;14.22;59.02
52297;DHT22;38244;51.046;17.038;2022-11-15T11:53:27;14.13;59.04
52297;DHT22;38244;51.046;17.038;2022-11-15T11:55:54;14.07;59.64
52297;DHT22;38244;51.046;17.038;2022-11-15T11:58:36;14.02;59.53
52297;DHT22;38244;51.046;17.038;2022-11-15T12:01:23;13.98;59.73
52297;DHT22;38244;51.046;17.038;2022-11-15T12:04:10;13.94;59.90
52297;DHT22;38244;51.046;17.038;2022-11-15T12:06:38;13.91;60.42
52297;DHT22;38244;51.046;17.038;2022-11-15T12:15:39;13.81;60.75
52297;DHT22;38244;51.046;17.038;2022-11-15T12:18:00;13.80;60.57
52297;DHT22;38244;51.046;17.038;2022-11-15T12:20:32;13.78;60.94
52297;DHT22;38244;51.046;17.038;2022-11-15T12:23:01;13.76;61.14
52297;DHT22;38244;51.046;17.038;2022-11-15T12:36:50;13.81;62.23
52297;DHT22;38244;51.046;17.038;2022-11-15T12:39:18;13.78;62.59
52297;DHT22;38244;51.046;17.038;2022-11-15T12:52:08;14.81;60.25
52297;DHT22;38244;51.046;17.038;2022-11-15T13:00:00;14.36;61.97
52297;DHT22;38244;51.046;17.038;2022-11-15T13:02:43;14.28;62.57
52297;DHT22;38244;51.046;17.038;2022-11-15T13:13:08;15.51;59.17
52297;DHT22;38244;51.046;17.038;2022-11-15T13:18:35;14.88;61.43
52297;DHT22;38244;51.046;17.038;2022-11-15T13:21:03;14.66;62.12
52297;DHT22;38244;51.046;17.038;2022-11-15T13:23:32;14.53;62.94
52297;DHT22;38244;51.046;17.038;2022-11-15T13:28:33;15.57;60.13
52297;DHT22;38244;51.046;17.038;2022-11-15T13:31:30;16.09;58.74
52297;DHT22;38244;51.046;17.038;2022-11-15T13:33:59;15.81;59.18
52297;DHT22;38244;51.046;17.038;2022-11-15T13:36:33;15.40;60.49
52297;DHT22;38244;51.046;17.038;2022-11-15T13:39:05;15.09;61.48
52297;DHT22;38244;51.046;17.038;2022-11-15T13:41:34;14.87;62.44
52297;DHT22;38244;51.046;17.038;2022-11-15T13:44:02;15.16;62.37
52297;DHT22;38244;51.046;17.038;2022-11-15T13:46:30;15.78;60.25
52297;DHT22;38244;51.046;17.038;2022-11-15T13:49:02;16.30;59.25
52297;DHT22;38244;51.046;17.038;2022-11-15T13:51:35;16.30;58.36
52297;DHT22;38244;51.046;17.038;2022-11-15T14:00:00;15.06;61.59
52297;DHT22;38244;51.046;17.038;2022-11-15T14:02:32;14.82;62.39
52297;DHT22;38244;51.046;17.038;2022-11-15T14:05:11;14.61;63.31
52297;DHT22;38244;51.046;17.038;2022-11-15T14:07:30;14.94;62.89
52297;DHT22;38244;51.046;17.038;2022-11-15T14:09:58;15.56;60.55
52297;DHT22;38244;51.046;17.038;2022-11-15T14:12:33;15.96;59.06
52297;DHT22;38244;51.046;17.038;2022-11-15T14:15:18;15.83;59.01
52297;DHT22;38244;51.046;17.038;2022-11-15T14:17:38;15.33;60.26
52297;DHT22;38244;51.046;17.038;2022-11-15T14:26:32;14.16;63.29
52297;DHT22;38244;51.046;17.038;2022-11-15T14:29:24;14.47;63.10
52297;DHT22;38244;51.046;17.038;2022-11-15T14:32:19;15.23;60.72
52297;DHT22;38244;51.046;17.038;2022-11-15T14:34:40;15.68;59.37
52297;DHT22;38244;51.046;17.038;2022-11-15T14:37:18;15.58;59.21
52297;DHT22;38244;51.046;17.038;2022-11-15T14:39:42;14.96;60.96
52297;DHT22;38244;51.046;17.038;2022-11-15T14:42:29;14.46;62.26
52297;DHT22;38244;51.046;17.038;2022-11-15T14:44:55;14.13;63.75
52297;DHT22;38244;51.046;17.038;2022-11-15T14:47:21;14.64;62.54
52297;DHT22;38244;51.046;17.038;2022-11-15T14:49:47;15.13;61.11
52297;DHT22;38244;51.046;17.038;2022-11-15T14:52:28;15.43;59.92
52297;DHT22;38244;51.046;17.038;2022-11-15T14:54:57;15.62;59.11
52297;DHT22;38244;51.046;17.038;2022-11-15T14:57:24;15.34;59.04
52297;DHT22;38244;51.046;17.038;2022-11-15T14:59:50;14.63;60.62
52297;DHT22;38244;51.046;17.038;2022-11-15T15:02:38;14.05;62.14
52297;DHT22;38244;51.046;17.038;2022-11-15T15:05:20;13.61;63.81
52297;DHT22;38244;51.046;17.038;2022-11-15T15:07:46;14.04;62.85
52297;DHT22;38244;51.046;17.038;2022-11-15T15:10:14;14.43;61.43
52297;DHT22;38244;51.046;17.038;2022-11-15T15:12:43;14.67;60.56
52297;DHT22;38244;51.046;17.038;2022-11-15T15:15:27;14.77;59.95
52297;DHT22;38244;51.046;17.038;2022-11-15T15:17:56;14.89;59.53
52297;DHT22;38244;51.046;17.038;2022-11-15T15:20:22;14.53;59.92
52297;DHT22;38244;51.046;17.038;2022-11-15T15:26:18;13.08;64.09
52297;DHT22;38244;51.046;17.038;2022-11-15T15:28:44;13.42;63.39
52297;DHT22;38244;51.046;17.038;2022-11-15T15:31:10;13.76;62.13
52297;DHT22;38244;51.046;17.038;2022-11-15T15:40:21;14.25;60.27
52297;DHT22;38244;51.046;17.038;2022-11-15T15:43:06;14.35;59.69
52297;DHT22;38244;51.046;17.038;2022-11-15T15:45:36;14.25;59.50
52297;DHT22;38244;51.046;17.038;2022-11-15T15:48:03;13.57;60.99
52297;DHT22;38244;51.046;17.038;2022-11-15T15:50:31;12.93;62.93
52297;DHT22;38244;51.046;17.038;2022-11-15T15:53:16;12.88;64.07
52297;DHT22;38244;51.046;17.038;2022-11-15T15:55:42;13.32;62.97
52297;DHT22;38244;51.046;17.038;2022-11-15T15:58:08;13.59;61.93
52297;DHT22;38244;51.046;17.038;2022-11-15T16:00:34;13.77;61.47
52297;DHT22;38244;51.046;17.038;2022-11-15T16:03:01;13.90;60.91
52297;DHT22;38244;51.046;17.038;2022-11-15T16:05:27;13.95;60.55
52297;DHT22;38244;51.046;17.038;2022-11-15T16:07:53;13.94;60.09
52297;DHT22;38244;51.046;17.038;2022-11-15T16:10:25;13.91;60.29
52297;DHT22;38244;51.046;17.038;2022-11-15T16:13:13;13.90;59.93
52297;DHT22;38244;51.046;17.038;2022-11-15T16:15:40;13.88;60.07
52297;DHT22;38244;51.046;17.038;2022-11-15T16:18:13;13.87;59.96
52297;DHT22;38244;51.046;17.038;2022-11-15T16:23:10;13.78;60.38
52297;DHT22;38244;51.046;17.038;2022-11-15T16:25:48;13.81;60.45
52297;DHT22;38244;51.046;17.038;2022-11-15T16:28:28;13.80;60.42
52297;DHT22;38244;51.046;17.038;2022-11-15T16:31:10;13.77;60.39
52297;DHT22;38244;51.046;17.038;2022-11-15T16:34:03;13.74;60.76
52297;DHT22;38244;51.046;17.038;2022-11-15T16:36:31;13.76;60.73
52297;DHT22;38244;51.046;17.038;2022-11-15T16:38:58;13.74;60.58
52297;DHT22;38244;51.046;17.038;2022-11-15T16:41:25;13.72;60.56
52297;DHT22;38244;51.046;17.038;2022-11-15T16:47:19;13.64;60.61
52297;DHT22;38244;51.046;17.038;2022-11-15T16:49:46;13.66;60.59
52297;DHT22;38244;51.046;17.038;2022-11-15T16:52:12;13.67;60.73
52297;DHT22;38244;51.046;17.038;2022-11-15T16:54:38;13.72;60.54
52297;DHT22;38244;51.046;17.038;2022-11-15T16:57:04;13.73;60.36
52297;DHT22;38244;51.046;17.038;2022-11-15T16:59:30;13.77;60.47
52297;DHT22;38244;51.046;17.038;2022-11-15T17:01:57;13.81;60.46
52297;DHT22;38244;51.046;17.038;2022-11-15T17:04:23;13.77;60.19
52297;DHT22;38244;51.046;17.038;2022-11-15T17:06:51;13.78;59.98
52297;DHT22;38244;51.046;17.038;2022-11-15T17:09:20;13.76;60.29
52297;DHT22;38244;51.046;17.038;2022-11-15T17:15:12;13.72;60.42
52297;DHT22;38244;51.046;17.038;2022-11-15T17:17:39;13.76;60.27
52297;DHT22;38244;51.046;17.038;2022-11-15T17:20:06;13.78;59.96
52297;DHT22;38244;51.046;17.038;2022-11-15T17:22:36;13.77;59.94
52297;DHT22;38244;51.046;17.038;2022-11-15T17:25:02;13.76;59.90
52297;DHT22;38244;51.046;17.038;2022-11-15T17:27:30;13.74;59.81
52297;DHT22;38244;51.046;17.038;2022-11-15T17:29:56;13.72;59.42
52297;DHT22;38244;51.046;17.038;2022-11-15T17:32:41;13.29;59.31
52297;DHT22;38244;51.046;17.038;2022-11-15T17:35:10;12.38;61.38
52297;DHT22;38244;51.046;17.038;2022-11-15T17:37:36;11.66;62.76
52297;DHT22;38244;51.046;17.038;2022-11-15T17:40:02;11.55;64.40
52297;DHT22;38244;51.046;17.038;2022-11-15T17:46:13;12.25;63.55
52297;DHT22;38244;51.046;17.038;2022-11-15T17:48:43;12.42;63.24
52297;DHT22;38244;51.046;17.038;2022-11-15T17:51:11;12.51;62.95
52297;DHT22;38244;51.046;17.038;2022-11-15T17:53:43;12.56;62.75
52297;DHT22;38244;51.046;17.038;2022-11-15T17:56:13;12.59;62.40
52297;DHT22;38244;51.046;17.038;2022-11-15T17:58:40;12.60;62.30
52297;DHT22;38244;51.046;17.038;2022-11-15T18:04:07;12.60;61.84
52297;DHT22;38244;51.046;17.038;2022-11-15T18:06:33;12.59;61.82
52297;DHT22;38244;51.046;17.038;2022-11-15T18:09:00;12.59;61.84
52297;DHT22;38244;51.046;17.038;2022-11-15T18:11:32;12.63;61.75
52297;DHT22;38244;51.046;17.038;2022-11-15T18:14:02;12.63;61.96
52297;DHT22;38244;51.046;17.038;2022-11-15T18:16:29;12.66;62.02
52297;DHT22;38244;51.046;17.038;2022-11-15T18:18:56;12.69;61.84
52297;DHT22;38244;51.046;17.038;2022-11-15T18:21:29;12.72;61.87
52297;DHT22;38244;51.046;17.038;2022-11-15T18:23:53;12.73;61.93
52297;DHT22;38244;51.046;17.038;2022-11-15T18:26:20;12.72;62.04
52297;DHT22;38244;51.046;17.038;2022-11-15T18:28:48;12.70;61.61
52297;DHT22;38244;51.046;17.038;2022-11-15T18:31:23;12.73;61.22
52297;DHT22;38244;51.046;17.038;2022-11-15T18:36:57;12.77;61.47
52297;DHT22;38244;51.046;17.038;2022-11-15T18:39:23;12.79;61.23
52297;DHT22;38244;51.046;17.038;2022-11-15T18:41:49;12.79;60.94
52297;DHT22;38244;51.046;17.038;2022-11-15T18:44:16;12.81;60.85
52297;DHT22;38244;51.046;17.038;2022-11-15T18:46:43;12.83;61.08
52297;DHT22;38244;51.046;17.038;2022-11-15T18:49:14;12.81;60.88